createdAt,value
2023-04-06T00:01:06.923Z,8.87
2023-04-06T00:11:04.760Z,8.47
2023-04-06T00:15:56.845Z,9.57
2023-04-06T00:36:06.790Z,8.70
2023-04-06T00:40:58.762Z,11.23
2023-04-06T00:46:36.943Z,8.97
2023-04-06T00:51:28.770Z,8.37
2023-04-06T00:56:20.760Z,10.20
2023-04-06T01:01:12.532Z,8.73
2023-04-06T01:06:04.377Z,8.00
2023-04-06T01:10:56.076Z,10.17
2023-04-06T01:15:48.360Z,10.57
2023-04-06T01:20:40.131Z,9.93
2023-04-06T01:25:31.850Z,10.10
2023-04-06T01:30:23.675Z,10.03
2023-04-06T01:35:15.622Z,9.73
2023-04-06T01:40:08.452Z,9.13
2023-04-06T01:45:00.206Z,10.50
2023-04-06T01:49:54.105Z,12.90
2023-04-06T01:54:45.893Z,10.80
2023-04-06T01:59:37.696Z,10.30
2023-04-06T02:04:29.461Z,9.93
2023-04-06T02:09:21.254Z,11.17
2023-04-06T02:14:13.010Z,12.70
2023-04-06T02:19:04.731Z,11.53
2023-04-06T02:23:56.717Z,13.30
2023-04-06T02:28:48.439Z,10.00
2023-04-06T02:33:40.213Z,9.07
2023-04-06T02:38:31.939Z,9.93
2023-04-06T02:43:23.801Z,9.27
2023-04-06T02:48:15.668Z,11.53
2023-04-06T02:53:07.407Z,10.80
2023-04-06T02:57:59.160Z,10.37
2023-04-06T03:02:51.083Z,11.13
2023-04-06T03:07:42.866Z,9.33
2023-04-06T03:12:34.739Z,10.53
2023-04-06T03:17:26.446Z,11.97
2023-04-06T03:22:18.162Z,12.03
2023-04-06T03:27:10.392Z,12.17
2023-04-06T03:32:02.096Z,11.33
2023-04-06T03:37:03.178Z,12.93
2023-04-06T03:42:01.104Z,13.73
2023-04-06T03:46:53.102Z,12.13
2023-04-06T03:51:44.982Z,10.23
2023-04-06T03:56:36.715Z,10.43
2023-04-06T04:01:29.041Z,10.23
2023-04-06T04:06:20.853Z,12.23
2023-04-06T04:11:16.654Z,11.97
2023-04-06T04:16:08.402Z,12.53
2023-04-06T04:21:00.182Z,14.53
2023-04-06T04:25:52.350Z,11.80
2023-04-06T04:30:44.096Z,12.27
2023-04-06T04:35:38.848Z,13.10
2023-04-06T04:40:30.797Z,13.20
2023-04-06T04:45:22.507Z,12.03
2023-04-06T04:50:15.144Z,13.53
2023-04-06T04:55:07.274Z,12.67
2023-04-06T04:59:59.116Z,14.00
2023-04-06T05:04:50.915Z,17.33
2023-04-06T05:09:42.609Z,16.70
2023-04-06T05:14:34.574Z,18.93
2023-04-06T05:19:26.402Z,12.83
2023-04-06T05:24:19.345Z,15.33
2023-04-06T05:29:12.027Z,14.87
2023-04-06T05:34:03.801Z,13.87
2023-04-06T05:38:56.742Z,15.60
2023-04-06T05:43:48.451Z,12.03
2023-04-06T05:48:40.137Z,12.70
2023-04-06T05:58:37.830Z,9.93
2023-04-06T06:03:30.412Z,11.70
2023-04-06T06:08:23.156Z,11.13
2023-04-06T06:13:14.842Z,10.77
2023-04-06T06:18:07.128Z,10.27
2023-04-06T06:28:06.192Z,12.97
2023-04-06T06:32:57.980Z,12.70
2023-04-06T06:37:49.775Z,10.87
2023-04-06T06:42:41.467Z,12.53
2023-04-06T06:47:33.350Z,12.00
2023-04-06T06:52:25.203Z,12.40
2023-04-06T06:57:17.114Z,12.57
2023-04-06T07:02:08.815Z,12.43
2023-04-06T07:07:00.611Z,13.30
2023-04-06T07:16:58.188Z,12.80
2023-04-06T07:27:13.324Z,12.60
2023-04-06T07:37:59.040Z,13.97
2023-04-06T07:53:08.619Z,15.03
2023-04-06T08:18:25.730Z,10.83
2023-04-06T08:23:18.022Z,11.67
2023-04-06T08:28:15.741Z,12.47
2023-04-06T08:33:07.556Z,10.03
2023-04-06T08:37:59.350Z,11.33
2023-04-06T08:42:56.266Z,11.83
2023-04-06T08:58:09.722Z,11.00
2023-04-06T09:08:13.144Z,12.00
2023-04-06T09:13:15.368Z,10.87
2023-04-06T09:18:08.442Z,11.27
2023-04-06T09:28:08.220Z,11.47
2023-04-06T09:59:14.898Z,14.67
2023-04-06T10:04:30.108Z,11.13
2023-04-06T10:14:44.513Z,11.83
2023-04-06T10:20:15.857Z,12.37
2023-04-06T10:30:19.505Z,12.10
2023-04-06T10:35:18.564Z,10.40
2023-04-06T11:11:55.275Z,7.47
2023-04-06T11:54:57.330Z,6.23
2023-04-06T11:59:50.852Z,5.60
2023-04-06T12:40:46.065Z,9.00
2023-04-06T13:01:10.826Z,5.63
2023-04-06T14:02:29.617Z,6.63
2023-04-06T14:07:24.485Z,8.43
2023-04-06T14:12:24.076Z,7.93
2023-04-06T14:17:15.742Z,9.33
2023-04-06T14:22:07.818Z,6.67
2023-04-06T14:32:07.577Z,7.50
2023-04-06T14:36:59.804Z,6.07
2023-04-06T14:46:57.943Z,8.05
2023-04-06T14:51:57.902Z,7.90
2023-04-06T14:56:54.762Z,6.35
2023-04-06T15:01:48.672Z,7.07
2023-04-06T15:06:41.157Z,6.70
2023-04-06T15:11:32.938Z,5.45
2023-04-06T15:16:24.674Z,7.05
2023-04-06T15:21:16.368Z,6.45
2023-04-06T15:26:08.118Z,6.82
2023-04-06T15:30:59.890Z,5.32
2023-04-06T15:40:58.440Z,6.18
2023-04-06T15:45:50.176Z,5.10
2023-04-06T15:55:47.556Z,5.53
2023-04-06T16:00:39.304Z,7.73
2023-04-06T16:05:34.448Z,6.20
2023-04-06T16:10:31.735Z,5.70
2023-04-06T16:15:23.407Z,5.17
2023-04-06T16:20:15.900Z,5.63
2023-04-06T16:30:14.779Z,6.67
2023-04-06T16:40:13.992Z,3.57
2023-04-06T16:45:06.694Z,6.07
2023-04-06T16:50:05.370Z,5.57
2023-04-06T17:00:09.913Z,4.87
2023-04-06T17:05:03.503Z,8.77
2023-04-06T17:09:55.214Z,3.43
2023-04-06T17:14:46.891Z,4.57
2023-04-06T17:19:38.580Z,5.20
2023-04-06T17:24:30.234Z,4.40
2023-04-06T17:29:21.920Z,4.73
2023-04-06T17:34:13.620Z,3.50
2023-04-06T17:39:05.552Z,4.37
2023-04-06T17:43:57.222Z,4.50
2023-04-06T17:48:49.242Z,4.33
2023-04-06T17:53:41.937Z,5.60
2023-04-06T17:58:33.782Z,4.03
2023-04-06T18:03:25.634Z,3.07
2023-04-06T18:08:17.403Z,3.37
2023-04-06T18:13:09.466Z,4.57
2023-04-06T18:18:01.258Z,4.40
2023-04-06T18:22:53.199Z,4.67
2023-04-06T18:27:44.959Z,4.77
2023-04-06T18:32:36.757Z,4.40
2023-04-06T18:37:28.486Z,3.90
2023-04-06T18:42:20.624Z,4.63
2023-04-06T18:47:12.679Z,6.87
2023-04-06T18:52:07.733Z,3.63
2023-04-06T18:57:00.171Z,2.40
2023-04-06T19:01:58.071Z,1.93
2023-04-06T19:17:30.259Z,3.47
2023-04-06T19:22:29.611Z,2.90
2023-04-06T19:27:24.871Z,2.07
2023-04-06T19:32:19.682Z,2.47
2023-04-06T19:42:21.519Z,2.90
2023-04-06T20:13:37.590Z,4.90
2023-04-06T20:18:31.026Z,4.70
2023-04-06T20:23:23.671Z,7.20
2023-04-06T20:28:16.851Z,4.77
2023-04-06T20:33:09.200Z,6.37
2023-04-06T20:38:01.664Z,4.80
2023-04-06T20:42:57.372Z,6.37
2023-04-06T20:47:54.737Z,5.33
2023-04-06T20:52:51.035Z,4.63
2023-04-06T20:57:43.651Z,5.47
2023-04-06T21:02:37.141Z,4.37
2023-04-06T21:07:30.580Z,4.60
2023-04-06T21:12:22.473Z,5.33
2023-04-06T21:17:14.130Z,4.77
2023-04-06T21:22:05.811Z,5.90
2023-04-06T21:26:57.467Z,5.87
2023-04-06T21:31:49.210Z,7.03
2023-04-06T21:36:41.934Z,7.63
2023-04-06T21:41:34.235Z,8.13
2023-04-06T21:46:26.498Z,7.60
2023-04-06T21:51:20.078Z,8.73
2023-04-06T21:56:13.232Z,6.60
2023-04-06T22:01:12.110Z,9.07
2023-04-06T22:06:06.549Z,7.17
2023-04-06T22:11:00.993Z,8.40
2023-04-06T22:15:54.633Z,8.43
2023-04-06T22:20:47.498Z,7.77
2023-04-06T22:25:47.315Z,7.50
2023-04-06T22:30:39.830Z,9.27
2023-04-06T22:35:35.061Z,8.23
2023-04-06T22:40:30.457Z,9.83
2023-04-06T22:45:32.494Z,7.73
2023-04-06T22:50:32.305Z,7.87
2023-04-06T22:55:25.959Z,6.43
2023-04-06T23:00:19.767Z,10.43
2023-04-06T23:05:11.522Z,8.77
2023-04-06T23:10:03.566Z,7.13
2023-04-06T23:14:55.361Z,8.03
2023-04-06T23:19:48.208Z,8.17
2023-04-06T23:24:39.872Z,10.03
2023-04-06T23:29:31.967Z,8.57
2023-04-06T23:34:23.633Z,7.90
2023-04-06T23:39:15.604Z,7.73
2023-04-06T23:44:07.290Z,6.70
2023-04-06T23:48:58.957Z,7.47
2023-04-06T23:53:50.702Z,7.77
2023-04-06T23:58:42.371Z,11.37
